createdAt,value
2022-12-22T00:00:00.672Z,26.13
2022-12-22T00:02:47.457Z,25.88
2022-12-22T00:05:39.247Z,24.70
2022-12-22T00:08:25.523Z,24.83
2022-12-22T00:11:12.461Z,24.35
2022-12-22T00:14:00.455Z,25.52
2022-12-22T00:16:52.488Z,24.23
2022-12-22T00:19:38.380Z,23.88
2022-12-22T00:22:44.446Z,23.17
2022-12-22T00:25:35.409Z,23.13
2022-12-22T00:28:30.387Z,22.90
2022-12-22T00:31:15.870Z,22.80
2022-12-22T00:34:01.372Z,23.83
2022-12-22T00:36:47.206Z,20.88
2022-12-22T00:39:33.088Z,22.08
2022-12-22T00:42:18.642Z,22.20
2022-12-22T00:45:04.027Z,23.23
2022-12-22T00:47:50.019Z,23.30
2022-12-22T00:50:36.373Z,21.90
2022-12-22T00:53:22.570Z,23.55
2022-12-22T00:56:08.447Z,21.48
2022-12-22T00:58:54.887Z,22.33
2022-12-22T01:01:40.286Z,23.30
2022-12-22T01:04:29.357Z,23.40
2022-12-22T01:07:16.325Z,23.33
2022-12-22T01:10:07.777Z,23.38
2022-12-22T01:12:58.647Z,22.50
2022-12-22T01:15:44.978Z,23.40
2022-12-22T01:18:30.977Z,22.65
2022-12-22T01:21:16.908Z,22.75
2022-12-22T01:24:03.704Z,23.67
2022-12-22T01:26:50.175Z,23.58
2022-12-22T01:29:35.557Z,23.83
2022-12-22T01:32:20.844Z,23.35
2022-12-22T01:35:06.084Z,24.05
2022-12-22T01:37:51.452Z,22.63
2022-12-22T01:40:39.960Z,23.98
2022-12-22T01:43:39.190Z,22.98
2022-12-22T01:46:38.380Z,23.90
2022-12-22T01:49:27.277Z,23.35
2022-12-22T01:52:12.740Z,24.00
2022-12-22T01:54:58.665Z,23.25
2022-12-22T01:57:45.130Z,24.80
2022-12-22T02:00:31.099Z,23.67
2022-12-22T02:03:16.323Z,24.80
2022-12-22T02:06:24.210Z,23.23
2022-12-22T02:09:20.626Z,24.17
2022-12-22T02:12:18.603Z,24.08
2022-12-22T02:15:13.017Z,23.52
2022-12-22T02:18:04.841Z,25.13
2022-12-22T02:20:59.812Z,26.30
2022-12-22T02:24:03.978Z,25.98
2022-12-22T02:26:51.700Z,24.08
2022-12-22T02:29:57.623Z,26.02
2022-12-22T02:32:44.230Z,26.10
2022-12-22T02:35:35.180Z,26.85
2022-12-22T02:38:33.232Z,26.55
2022-12-22T02:41:33.864Z,26.45
2022-12-22T02:44:19.213Z,25.60
2022-12-22T02:47:45.520Z,27.40
2022-12-22T02:50:55.612Z,26.27
2022-12-22T02:53:42.423Z,25.30
2022-12-22T02:56:29.581Z,26.30
2022-12-22T02:59:15.493Z,25.55
2022-12-22T03:02:04.170Z,26.25
2022-12-22T03:04:49.718Z,25.95
2022-12-22T03:07:35.132Z,26.52
2022-12-22T03:10:20.424Z,27.23
2022-12-22T03:13:05.907Z,25.70
2022-12-22T03:15:51.249Z,27.02
2022-12-22T03:18:36.798Z,27.83
2022-12-22T03:21:22.157Z,27.73
2022-12-22T03:24:07.446Z,28.27
2022-12-22T03:26:34.283Z,28.70
2022-12-22T03:29:01.231Z,29.20
2022-12-22T03:31:28.195Z,30.42
2022-12-22T03:33:55.392Z,31.38
2022-12-22T03:36:22.288Z,29.35
2022-12-22T03:38:49.217Z,31.55
2022-12-22T03:41:34.477Z,30.60
2022-12-22T03:44:19.820Z,32.45
2022-12-22T03:46:46.751Z,33.45
2022-12-22T03:49:13.903Z,33.97
2022-12-22T03:51:42.364Z,33.45
2022-12-22T03:54:10.976Z,35.13
2022-12-22T03:56:38.438Z,33.92
2022-12-22T03:59:06.251Z,32.30
2022-12-22T04:01:37.652Z,34.65
2022-12-22T04:04:04.803Z,32.13
2022-12-22T04:06:31.744Z,31.70
2022-12-22T04:08:58.614Z,33.10
2022-12-22T04:11:44.092Z,41.08
2022-12-22T04:14:11.053Z,30.90
2022-12-22T04:16:37.985Z,30.35
2022-12-22T04:19:06.543Z,32.10
2022-12-22T04:21:33.528Z,29.17
2022-12-22T04:24:00.549Z,30.83
2022-12-22T04:26:27.697Z,30.85
2022-12-22T04:28:55.234Z,30.17
2022-12-22T04:31:23.256Z,30.60
2022-12-22T04:33:50.240Z,29.23
2022-12-22T04:36:17.483Z,29.55
2022-12-22T04:38:44.745Z,30.17
2022-12-22T04:41:12.147Z,28.92
2022-12-22T04:43:39.075Z,26.48
2022-12-22T04:46:06.415Z,28.48
2022-12-22T04:48:34.139Z,28.08
2022-12-22T04:51:01.476Z,26.75
2022-12-22T04:53:30.183Z,27.88
2022-12-22T04:56:04.053Z,27.77
2022-12-22T04:58:31.550Z,26.92
2022-12-22T05:01:08.158Z,26.85
2022-12-22T05:03:35.110Z,24.42
2022-12-22T05:06:02.096Z,24.52
2022-12-22T05:08:28.963Z,25.58
2022-12-22T05:10:55.903Z,25.02
2022-12-22T05:13:22.805Z,25.00
2022-12-22T05:15:49.691Z,24.33
2022-12-22T05:18:16.547Z,24.02
2022-12-22T05:20:43.389Z,24.98
2022-12-22T05:23:10.311Z,24.40
2022-12-22T05:25:37.152Z,23.92
2022-12-22T05:28:04.367Z,24.55
2022-12-22T05:30:31.264Z,24.83
2022-12-22T05:32:58.136Z,24.55
2022-12-22T05:35:25.008Z,23.80
2022-12-22T05:37:51.877Z,25.02
2022-12-22T05:40:19.003Z,24.63
2022-12-22T05:42:45.828Z,24.67
2022-12-22T05:45:16.511Z,28.60
2022-12-22T05:47:45.656Z,30.17
2022-12-22T05:50:14.441Z,32.03
2022-12-22T05:52:43.993Z,27.23
2022-12-22T05:55:11.936Z,27.75
2022-12-22T05:57:39.110Z,26.40
2022-12-22T06:00:09.706Z,31.02
2022-12-22T06:02:41.246Z,25.38
2022-12-22T06:05:09.613Z,24.02
2022-12-22T06:07:36.704Z,24.30
2022-12-22T06:10:11.632Z,23.25
2022-12-22T06:12:39.592Z,21.33
2022-12-22T06:15:07.632Z,20.35
2022-12-22T06:17:39.094Z,20.63
2022-12-22T06:20:11.222Z,20.85
2022-12-22T06:22:38.133Z,20.45
2022-12-22T06:25:05.451Z,19.92
2022-12-22T06:27:32.382Z,18.67
2022-12-22T06:29:59.274Z,19.73
2022-12-22T06:32:26.268Z,19.85
2022-12-22T06:34:53.151Z,19.25
2022-12-22T06:37:20.005Z,20.67
2022-12-22T06:39:47.223Z,20.58
2022-12-22T06:42:32.548Z,21.25
2022-12-22T06:44:59.464Z,21.65
2022-12-22T06:47:26.420Z,21.42
2022-12-22T06:49:53.314Z,22.05
2022-12-22T06:52:20.115Z,20.27
2022-12-22T06:54:46.997Z,21.40
2022-12-22T06:57:13.877Z,21.02
2022-12-22T06:59:40.814Z,21.98
2022-12-22T07:02:09.490Z,21.33
2022-12-22T07:04:36.465Z,23.00
2022-12-22T07:07:03.532Z,21.23
2022-12-22T07:09:30.441Z,23.33
2022-12-22T07:11:57.307Z,24.27
2022-12-22T07:14:24.194Z,20.80
2022-12-22T07:16:51.259Z,22.42
2022-12-22T07:19:18.154Z,22.45
2022-12-22T07:21:45.019Z,23.10
2022-12-22T07:24:12.057Z,22.73
2022-12-22T07:26:38.913Z,21.45
2022-12-22T07:29:05.814Z,23.33
2022-12-22T07:31:32.752Z,23.15
2022-12-22T07:33:59.828Z,23.75
2022-12-22T07:36:26.741Z,23.23
2022-12-22T07:38:53.613Z,24.35
2022-12-22T07:41:39.656Z,22.08
2022-12-22T07:44:07.253Z,18.55
2022-12-22T07:46:37.597Z,20.15
2022-12-22T07:49:24.534Z,20.45
2022-12-22T07:51:52.357Z,23.33
2022-12-22T07:54:19.308Z,22.55
2022-12-22T07:56:47.048Z,23.38
2022-12-22T07:59:14.579Z,19.70
2022-12-22T08:01:42.345Z,20.63
2022-12-22T08:04:10.474Z,19.83
2022-12-22T08:06:37.499Z,18.45
2022-12-22T08:09:06.128Z,20.30
2022-12-22T08:11:33.134Z,18.38
2022-12-22T08:14:01.905Z,17.10
2022-12-22T08:16:29.942Z,18.73
2022-12-22T08:18:57.242Z,18.77
2022-12-22T08:21:24.322Z,19.98
2022-12-22T08:23:51.313Z,18.60
2022-12-22T08:26:46.782Z,19.23
2022-12-22T08:29:24.410Z,17.45
2022-12-22T08:31:51.612Z,18.08
2022-12-22T08:34:18.537Z,19.92
2022-12-22T08:36:50.976Z,18.73
2022-12-22T08:39:20.264Z,18.02
2022-12-22T08:41:49.943Z,16.55
2022-12-22T08:44:25.471Z,15.50
2022-12-22T08:46:54.286Z,15.93
2022-12-22T08:49:21.788Z,14.35
2022-12-22T08:51:49.646Z,15.82
2022-12-22T08:54:17.070Z,14.38
2022-12-22T08:56:45.464Z,14.50
2022-12-22T08:59:13.281Z,14.93
2022-12-22T09:01:46.824Z,14.18
2022-12-22T09:04:15.176Z,15.68
2022-12-22T09:06:42.067Z,15.25
2022-12-22T09:09:11.330Z,14.45
2022-12-22T09:11:39.753Z,13.57
2022-12-22T09:14:08.255Z,13.00
2022-12-22T09:16:35.940Z,13.20
2022-12-22T09:19:03.745Z,12.07
2022-12-22T09:21:30.654Z,12.90
2022-12-22T09:23:58.285Z,12.38
2022-12-22T09:26:27.164Z,13.60
2022-12-22T09:28:55.729Z,13.63
2022-12-22T09:31:24.838Z,12.30
2022-12-22T09:33:52.542Z,11.73
2022-12-22T09:36:28.433Z,12.60
2022-12-22T09:38:55.348Z,10.73
2022-12-22T09:41:40.851Z,12.70
2022-12-22T09:44:40.723Z,11.52
2022-12-22T09:47:17.147Z,11.60
2022-12-22T09:49:44.167Z,10.60
2022-12-22T09:52:24.940Z,10.32
2022-12-22T09:54:51.819Z,10.07
2022-12-22T09:57:18.744Z,11.05
2022-12-22T09:59:45.692Z,10.77
2022-12-22T10:02:25.940Z,12.32
2022-12-22T10:05:05.265Z,12.23
2022-12-22T10:07:35.019Z,10.88
2022-12-22T10:10:27.641Z,8.95
2022-12-22T10:15:23.139Z,10.55
2022-12-22T10:17:52.401Z,9.93
2022-12-22T10:20:19.313Z,10.63
2022-12-22T10:22:52.005Z,9.38
2022-12-22T10:26:17.248Z,9.43
2022-12-22T10:28:30.464Z,9.55
2022-12-22T10:31:17.556Z,9.67
2022-12-22T10:33:47.752Z,9.68
2022-12-22T10:36:20.861Z,10.15
2022-12-22T10:39:02.150Z,9.23
2022-12-22T10:41:32.890Z,9.48
2022-12-22T10:44:09.033Z,9.57
2022-12-22T10:46:43.931Z,9.52
2022-12-22T10:49:21.791Z,8.77
2022-12-22T10:52:08.837Z,9.52
2022-12-22T10:54:36.523Z,8.23
2022-12-22T10:57:16.557Z,9.05
2022-12-22T10:59:57.045Z,8.43
2022-12-22T11:02:31.990Z,8.30
2022-12-22T11:05:10.839Z,8.60
2022-12-22T11:07:40.271Z,9.32
2022-12-22T11:10:25.999Z,9.50
2022-12-22T11:13:26.344Z,9.82
2022-12-22T11:16:17.472Z,10.32
2022-12-22T11:18:55.500Z,9.70
2022-12-22T11:21:45.666Z,10.82
2022-12-22T11:24:30.765Z,12.13
2022-12-22T11:27:03.673Z,10.85
2022-12-22T11:29:49.301Z,12.00
2022-12-22T11:32:48.554Z,13.10
2022-12-22T11:35:33.569Z,12.27
2022-12-22T11:38:21.229Z,15.23
2022-12-22T11:40:55.258Z,14.23
2022-12-22T11:43:25.838Z,13.50
2022-12-22T11:46:04.692Z,15.07
2022-12-22T11:49:09.322Z,14.68
2022-12-22T11:51:41.930Z,14.00
2022-12-22T11:54:17.936Z,16.13
2022-12-22T11:57:12.761Z,15.77
2022-12-22T12:00:03.899Z,14.18
2022-12-22T12:02:41.249Z,13.27
2022-12-22T12:05:26.919Z,14.07
2022-12-22T12:08:03.106Z,11.13
2022-12-22T12:10:46.005Z,10.35
2022-12-22T12:13:34.793Z,9.88
2022-12-22T12:16:34.092Z,8.57
2022-12-22T12:19:27.073Z,8.30
2022-12-22T12:22:01.816Z,7.18
2022-12-22T12:24:49.933Z,6.75
2022-12-22T12:27:44.296Z,6.38
2022-12-22T12:33:25.603Z,6.78
2022-12-22T12:36:16.398Z,5.85
2022-12-22T12:39:09.638Z,7.35
2022-12-22T12:42:01.747Z,7.25
2022-12-22T12:44:33.913Z,7.85
2022-12-22T12:50:19.715Z,8.90
2022-12-22T12:52:48.758Z,7.63
2022-12-22T12:55:49.577Z,11.20
2022-12-22T12:58:35.413Z,11.35
2022-12-22T13:01:04.691Z,12.05
2022-12-22T13:04:01.720Z,12.18
2022-12-22T13:06:50.671Z,12.75
2022-12-22T13:12:37.980Z,9.85
2022-12-22T13:15:25.040Z,11.20
2022-12-22T13:17:52.028Z,6.75
2022-12-22T13:20:29.561Z,11.18
2022-12-22T13:22:59.188Z,13.68
2022-12-22T13:25:36.570Z,13.85
2022-12-22T13:28:04.189Z,15.50
2022-12-22T13:30:31.471Z,11.13
2022-12-22T13:33:02.246Z,15.30
2022-12-22T13:35:46.653Z,15.52
2022-12-22T13:38:31.738Z,15.63
2022-12-22T13:41:02.698Z,16.63
2022-12-22T13:43:31.865Z,17.65
2022-12-22T13:46:02.583Z,17.00
2022-12-22T13:48:49.211Z,19.23
2022-12-22T13:51:27.149Z,16.85
2022-12-22T13:54:11.884Z,18.90
2022-12-22T13:56:44.237Z,18.05
2022-12-22T13:59:26.209Z,17.95
2022-12-22T14:02:00.981Z,16.20
2022-12-22T14:04:29.387Z,17.88
2022-12-22T14:06:56.455Z,18.92
2022-12-22T14:09:28.110Z,19.88
2022-12-22T14:12:01.141Z,18.63
2022-12-22T14:14:29.408Z,19.77
2022-12-22T14:16:58.549Z,19.40
2022-12-22T14:19:27.891Z,20.77
2022-12-22T14:22:08.917Z,20.77
2022-12-22T14:24:54.885Z,20.25
2022-12-22T14:27:24.878Z,21.35
2022-12-22T14:29:52.204Z,20.70
2022-12-22T14:32:33.633Z,22.38
2022-12-22T14:35:00.512Z,20.77
2022-12-22T14:37:32.561Z,21.17
2022-12-22T14:40:00.158Z,20.63
2022-12-22T14:42:27.177Z,22.67
2022-12-22T14:44:54.222Z,22.38
2022-12-22T14:47:25.990Z,21.25
2022-12-22T14:49:54.260Z,22.83
2022-12-22T14:52:39.324Z,22.88
2022-12-22T14:55:20.914Z,22.98
2022-12-22T14:57:54.374Z,20.23
2022-12-22T15:00:24.398Z,22.95
2022-12-22T15:02:57.363Z,23.33
2022-12-22T15:05:33.269Z,22.88
2022-12-22T15:08:06.113Z,23.42
2022-12-22T15:10:38.394Z,23.48
2022-12-22T15:13:10.615Z,23.90
2022-12-22T15:18:04.443Z,24.42
2022-12-22T15:20:38.715Z,26.88
2022-12-22T15:23:16.663Z,26.40
2022-12-22T15:25:43.646Z,26.70
2022-12-22T15:28:10.588Z,27.20
2022-12-22T15:30:38.076Z,28.63
2022-12-22T15:33:10.528Z,27.15
2022-12-22T15:35:37.444Z,28.98
2022-12-22T15:38:17.081Z,29.40
2022-12-22T15:40:44.153Z,29.08
2022-12-22T15:45:59.129Z,28.95
2022-12-22T15:48:33.162Z,27.73
2022-12-22T15:51:02.484Z,28.90
2022-12-22T15:53:30.427Z,28.13
2022-12-22T15:55:58.658Z,27.00
2022-12-22T15:58:35.222Z,30.00
2022-12-22T16:01:02.151Z,29.23
2022-12-22T16:03:29.293Z,29.35
2022-12-22T16:05:56.521Z,30.75
2022-12-22T16:08:30.547Z,29.70
2022-12-22T16:10:58.012Z,30.55
2022-12-22T16:13:27.493Z,31.98
2022-12-22T16:15:56.749Z,31.23
2022-12-22T16:18:23.778Z,32.15
2022-12-22T16:20:51.620Z,32.90
2022-12-22T16:23:21.955Z,32.50
2022-12-22T16:25:53.288Z,30.85
2022-12-22T16:28:24.806Z,32.33
2022-12-22T16:30:52.644Z,33.70
2022-12-22T16:33:19.912Z,32.33
2022-12-22T16:35:47.264Z,31.67
2022-12-22T16:38:18.427Z,30.65
2022-12-22T16:40:49.685Z,31.15
2022-12-22T16:46:15.295Z,29.77
2022-12-22T16:51:33.969Z,28.27
2022-12-22T16:54:01.777Z,28.30
2022-12-22T16:56:31.245Z,28.35
2022-12-22T16:58:58.813Z,28.50
2022-12-22T17:01:48.782Z,28.17
2022-12-22T17:04:25.354Z,28.35
2022-12-22T17:06:54.845Z,27.35
2022-12-22T17:09:25.954Z,27.88
2022-12-22T17:11:54.302Z,27.15
2022-12-22T17:14:36.992Z,27.02
2022-12-22T17:17:04.090Z,26.15
2022-12-22T17:19:31.043Z,25.60
2022-12-22T17:22:00.082Z,26.15
2022-12-22T17:24:28.867Z,25.60
2022-12-22T17:27:01.083Z,26.55
2022-12-22T17:29:28.334Z,24.83
2022-12-22T17:31:56.692Z,25.83
2022-12-22T17:34:23.993Z,25.05
2022-12-22T17:36:51.470Z,24.10
2022-12-22T17:39:23.286Z,24.73
2022-12-22T17:41:56.269Z,26.73
2022-12-22T17:44:24.898Z,25.27
2022-12-22T17:46:52.124Z,23.63
2022-12-22T17:49:22.123Z,24.35
2022-12-22T17:51:49.634Z,24.02
2022-12-22T17:54:25.235Z,24.50
2022-12-22T17:56:58.052Z,24.92
2022-12-22T17:59:24.946Z,23.27
2022-12-22T18:01:51.958Z,25.40
2022-12-22T18:04:18.938Z,23.75
2022-12-22T18:06:46.238Z,22.83
2022-12-22T18:09:20.504Z,23.35
2022-12-22T18:11:48.150Z,21.65
2022-12-22T18:14:15.614Z,23.15
2022-12-22T18:16:43.974Z,22.25
2022-12-22T18:19:10.932Z,24.27
2022-12-22T18:21:37.881Z,21.65
2022-12-22T18:24:05.599Z,21.92
2022-12-22T18:26:32.835Z,21.25
2022-12-22T18:29:00.010Z,23.92
2022-12-22T18:31:26.941Z,21.27
2022-12-22T18:33:53.955Z,21.90
2022-12-22T18:36:33.187Z,20.92
2022-12-22T18:39:02.017Z,20.65
2022-12-22T18:41:34.667Z,22.17
2022-12-22T18:44:01.619Z,21.70
2022-12-22T18:46:28.546Z,20.92
2022-12-22T18:49:00.395Z,20.00
2022-12-22T18:51:30.459Z,20.15
2022-12-22T18:53:57.534Z,19.98
2022-12-22T18:56:24.421Z,18.27
2022-12-22T18:58:51.388Z,20.45
2022-12-22T19:01:24.601Z,19.95
2022-12-22T19:03:54.507Z,20.42
2022-12-22T19:06:22.676Z,20.08
2022-12-22T19:08:50.281Z,19.95
2022-12-22T19:11:23.292Z,18.77
2022-12-22T19:13:51.544Z,19.25
2022-12-22T19:16:26.249Z,16.77
2022-12-22T19:18:53.248Z,18.67
2022-12-22T19:21:20.419Z,18.23
2022-12-22T19:23:47.336Z,19.02
2022-12-22T19:26:26.355Z,21.05
2022-12-22T19:29:00.460Z,33.25
2022-12-22T19:31:34.137Z,26.77
2022-12-22T19:34:05.162Z,21.58
2022-12-22T19:36:33.286Z,19.52
2022-12-22T19:39:04.352Z,20.73
2022-12-22T19:41:40.186Z,20.90
2022-12-22T19:44:19.492Z,20.85
2022-12-22T19:46:47.314Z,22.48
2022-12-22T19:49:23.088Z,22.23
2022-12-22T19:51:50.449Z,22.23
2022-12-22T19:54:17.505Z,24.83
2022-12-22T19:56:48.601Z,26.95
2022-12-22T19:59:28.075Z,23.58
2022-12-22T20:01:57.153Z,24.02
2022-12-22T20:04:24.210Z,23.13
2022-12-22T20:06:51.091Z,26.08
2022-12-22T20:09:17.932Z,25.55
2022-12-22T20:11:45.156Z,26.67
2022-12-22T20:14:19.061Z,26.02
2022-12-22T20:16:46.066Z,21.58
2022-12-22T20:19:14.539Z,24.42
2022-12-22T20:21:42.272Z,23.33
2022-12-22T20:24:20.682Z,23.75
2022-12-22T20:26:53.715Z,22.65
2022-12-22T20:29:21.329Z,21.67
2022-12-22T20:31:48.336Z,22.58
2022-12-22T20:34:15.291Z,22.23
2022-12-22T20:36:43.353Z,21.23
2022-12-22T20:39:13.624Z,21.10
2022-12-22T20:41:45.762Z,18.80
2022-12-22T20:44:17.581Z,16.55
2022-12-22T20:46:44.440Z,18.20
2022-12-22T20:49:15.521Z,18.15
2022-12-22T20:51:42.802Z,16.95
2022-12-22T20:54:14.057Z,14.57
2022-12-22T20:56:43.725Z,15.23
2022-12-22T20:59:20.240Z,13.85
2022-12-22T21:01:48.381Z,15.85
2022-12-22T21:04:15.832Z,14.93
2022-12-22T21:06:54.023Z,12.40
2022-12-22T21:09:21.921Z,14.30
2022-12-22T21:11:49.481Z,12.45
2022-12-22T21:14:16.868Z,12.70
2022-12-22T21:16:43.936Z,13.32
2022-12-22T21:19:19.242Z,12.85
2022-12-22T21:21:46.852Z,12.60
2022-12-22T21:24:13.813Z,11.13
2022-12-22T21:26:48.311Z,11.02
2022-12-22T21:29:26.879Z,11.15
2022-12-22T21:31:54.208Z,11.15
2022-12-22T21:34:21.740Z,11.55
2022-12-22T21:36:52.183Z,11.65
2022-12-22T21:39:26.500Z,11.35
2022-12-22T21:42:03.831Z,11.05
2022-12-22T21:44:33.171Z,9.75
2022-12-22T21:47:00.695Z,9.90
2022-12-22T21:49:30.370Z,9.85
2022-12-22T21:51:57.577Z,9.02
2022-12-22T21:54:25.503Z,8.77
2022-12-22T21:56:53.891Z,9.15
2022-12-22T21:59:21.496Z,8.95
2022-12-22T22:01:48.568Z,9.00
2022-12-22T22:04:15.603Z,9.27
2022-12-22T22:06:42.585Z,9.35
2022-12-22T22:09:09.620Z,7.95
2022-12-22T22:11:59.172Z,8.27
2022-12-22T22:14:27.050Z,7.85
2022-12-22T22:16:54.210Z,7.47
2022-12-22T22:19:21.137Z,8.02
2022-12-22T22:21:48.307Z,8.85
2022-12-22T22:24:15.202Z,8.57
2022-12-22T22:26:45.604Z,9.13
2022-12-22T22:29:12.656Z,8.82
2022-12-22T22:31:41.083Z,7.55
2022-12-22T22:34:08.254Z,7.50
2022-12-22T22:36:35.157Z,7.10
2022-12-22T22:39:02.119Z,7.32
2022-12-22T22:41:33.026Z,7.55
2022-12-22T22:44:02.209Z,7.50
2022-12-22T22:46:29.349Z,8.77
2022-12-22T22:48:58.603Z,8.80
2022-12-22T22:51:25.739Z,8.18
2022-12-22T22:53:52.622Z,8.35
2022-12-22T22:56:19.579Z,8.50
2022-12-22T22:58:46.466Z,8.32
2022-12-22T23:01:13.393Z,8.40
2022-12-22T23:03:40.474Z,8.80
2022-12-22T23:06:10.541Z,8.85
2022-12-22T23:08:37.964Z,9.75
2022-12-22T23:11:06.006Z,9.32
2022-12-22T23:13:32.976Z,10.00
2022-12-22T23:16:02.125Z,9.55
2022-12-22T23:18:30.297Z,10.90
2022-12-22T23:20:58.800Z,10.68
2022-12-22T23:23:25.712Z,11.27
2022-12-22T23:25:52.595Z,12.23
2022-12-22T23:28:19.820Z,13.00
2022-12-22T23:30:50.193Z,13.15
2022-12-22T23:33:18.110Z,13.07
2022-12-22T23:35:48.070Z,15.52
2022-12-22T23:38:16.719Z,14.57
2022-12-22T23:40:52.881Z,12.90
2022-12-22T23:43:20.799Z,14.52
2022-12-22T23:45:47.715Z,15.88
2022-12-22T23:48:14.892Z,17.10
2022-12-22T23:50:42.009Z,16.77
2022-12-22T23:53:08.875Z,16.02
2022-12-22T23:55:35.762Z,17.52
2022-12-22T23:58:02.678Z,16.90
